sensor_id;sensor_type;location;lat;lon;timestamp;temperature;humidity
20750;DHT22;10535;50.664;4.564;2022-11-20T18:19:24;6.80;99.90
20750;DHT22;10535;50.664;4.564;2022-11-20T18:22:08;8.00;99.90
20750;DHT22;10535;50.664;4.564;2022-11-20T18:24:34;8.00;99.90
20750;DHT22;10535;50.664;4.564;2022-11-20T18:27:17;7.90;99.90
20750;DHT22;10535;50.664;4.564;2022-11-20T18:30:08;8.20;99.90
20750;DHT22;10535;50.664;4.564;2022-11-20T18:33:09;8.30;99.90
20750;DHT22;10535;50.664;4.564;2022-11-20T18:46:29;8.30;99.90
20750;DHT22;10535;50.664;4.564;2022-11-20T18:54:15;8.40;99.90
20750;DHT22;10535;50.664;4.564;2022-11-20T18:57:16;8.40;99.90
20750;DHT22;10535;50.664;4.564;2022-11-20T21:16:57;7.20;99.90
20750;DHT22;10535;50.664;4.564;2022-11-20T21:19:23;7.10;99.90
20750;DHT22;10535;50.664;4.564;2022-11-20T21:21:49;7.00;99.90
20750;DHT22;10535;50.664;4.564;2022-11-20T21:24:25;7.00;99.90
20750;DHT22;10535;50.664;4.564;2022-11-20T21:26:50;7.10;99.90
20750;DHT22;10535;50.664;4.564;2022-11-20T21:29:27;7.00;99.90
20750;DHT22;10535;50.664;4.564;2022-11-20T21:31:53;7.00;99.90
20750;DHT22;10535;50.664;4.564;2022-11-20T21:34:20;7.10;99.90
20750;DHT22;10535;50.664;4.564;2022-11-20T21:36:46;7.10;99.90
20750;DHT22;10535;50.664;4.564;2022-11-20T21:39:15;7.00;99.90
20750;DHT22;10535;50.664;4.564;2022-11-20T21:41:41;7.10;99.90
20750;DHT22;10535;50.664;4.564;2022-11-20T21:44:08;7.30;99.90
20750;DHT22;10535;50.664;4.564;2022-11-20T21:46:39;7.30;99.90
20750;DHT22;10535;50.664;4.564;2022-11-20T21:49:05;7.30;99.90
20750;DHT22;10535;50.664;4.564;2022-11-20T21:51:31;7.60;99.90
20750;DHT22;10535;50.664;4.564;2022-11-20T21:53:57;7.50;99.90
20750;DHT22;10535;50.664;4.564;2022-11-20T21:56:24;7.60;99.90
20750;DHT22;10535;50.664;4.564;2022-11-20T21:58:51;7.70;99.90
20750;DHT22;10535;50.664;4.564;2022-11-20T22:01:21;7.80;99.90
20750;DHT22;10535;50.664;4.564;2022-11-20T22:03:48;7.90;99.90
20750;DHT22;10535;50.664;4.564;2022-11-20T22:06:15;8.00;99.90
20750;DHT22;10535;50.664;4.564;2022-11-20T22:08:41;7.90;99.90
20750;DHT22;10535;50.664;4.564;2022-11-20T22:11:09;7.80;99.90
20750;DHT22;10535;50.664;4.564;2022-11-20T22:13:35;7.70;99.90
20750;DHT22;10535;50.664;4.564;2022-11-20T22:16:19;7.70;99.90
20750;DHT22;10535;50.664;4.564;2022-11-20T22:18:49;7.70;99.90
20750;DHT22;10535;50.664;4.564;2022-11-20T22:21:17;7.70;99.90
20750;DHT22;10535;50.664;4.564;2022-11-20T22:23:43;7.70;99.90
20750;DHT22;10535;50.664;4.564;2022-11-20T22:26:11;7.80;99.90
20750;DHT22;10535;50.664;4.564;2022-11-20T22:28:37;7.80;99.90
20750;DHT22;10535;50.664;4.564;2022-11-20T22:31:06;7.80;99.90
20750;DHT22;10535;50.664;4.564;2022-11-20T22:33:32;7.80;99.90
20750;DHT22;10535;50.664;4.564;2022-11-20T22:36:06;7.90;99.90
20750;DHT22;10535;50.664;4.564;2022-11-20T22:38:33;7.70;99.90
20750;DHT22;10535;50.664;4.564;2022-11-20T22:41:02;7.60;99.90
20750;DHT22;10535;50.664;4.564;2022-11-20T22:43:28;7.60;99.90
20750;DHT22;10535;50.664;4.564;2022-11-20T22:46:09;7.60;99.90
20750;DHT22;10535;50.664;4.564;2022-11-20T22:48:37;7.70;99.90
20750;DHT22;10535;50.664;4.564;2022-11-20T22:51:07;7.80;99.90
20750;DHT22;10535;50.664;4.564;2022-11-20T22:53:33;7.60;99.90
20750;DHT22;10535;50.664;4.564;2022-11-20T22:56:00;7.70;99.90
20750;DHT22;10535;50.664;4.564;2022-11-20T22:58:30;7.60;99.90
20750;DHT22;10535;50.664;4.564;2022-11-20T23:03:32;7.50;99.90
20750;DHT22;10535;50.664;4.564;2022-11-20T23:05:59;7.40;99.90
20750;DHT22;10535;50.664;4.564;2022-11-20T23:08:24;7.40;99.90
20750;DHT22;10535;50.664;4.564;2022-11-20T23:10:50;7.40;99.90
20750;DHT22;10535;50.664;4.564;2022-11-20T23:13:15;7.40;99.90
20750;DHT22;10535;50.664;4.564;2022-11-20T23:15:41;7.40;99.90
20750;DHT22;10535;50.664;4.564;2022-11-20T23:18:06;7.30;99.90
20750;DHT22;10535;50.664;4.564;2022-11-20T23:20:34;7.20;99.90
20750;DHT22;10535;50.664;4.564;2022-11-20T23:23:00;7.30;99.90
20750;DHT22;10535;50.664;4.564;2022-11-20T23:25:26;7.30;99.90
20750;DHT22;10535;50.664;4.564;2022-11-20T23:27:52;7.40;99.90
20750;DHT22;10535;50.664;4.564;2022-11-20T23:30:18;7.20;99.90
20750;DHT22;10535;50.664;4.564;2022-11-20T23:32:44;7.30;99.90
20750;DHT22;10535;50.664;4.564;2022-11-20T23:35:10;7.30;99.90
20750;DHT22;10535;50.664;4.564;2022-11-20T23:37:35;7.20;99.90
20750;DHT22;10535;50.664;4.564;2022-11-20T23:40:01;7.30;99.90
20750;DHT22;10535;50.664;4.564;2022-11-20T23:42:27;7.40;99.90
20750;DHT22;10535;50.664;4.564;2022-11-20T23:44:52;7.30;99.90
20750;DHT22;10535;50.664;4.564;2022-11-20T23:47:18;7.30;99.90
20750;DHT22;10535;50.664;4.564;2022-11-20T23:49:43;7.40;99.90
20750;DHT22;10535;50.664;4.564;2022-11-20T23:52:09;7.50;99.90
20750;DHT22;10535;50.664;4.564;2022-11-20T23:54:35;7.40;99.90
20750;DHT22;10535;50.664;4.564;2022-11-20T23:57:01;7.40;99.90
20750;DHT22;10535;50.664;4.564;2022-11-20T23:59:26;7.50;99.90
